UTTTUASK

Guest
Details From UTTT - Yuzhny
To UASK - Ust Kamenogorsk
Flight Number -
Tags Generated
Created
Modified
Stats Distance 764 nm / 1,415 km
Max Altitude 0 ft / 0 m
Waypoints 3
Social Downloads 0
Likes 0
Share VATSIM

Download

Looking for another format? Having issues loading an existing format? Contact us
Advertisement - Login to hide

Notes

Generated

Route

UTTT UASK UASK

ID Type Via Altitude Latitude Longitude Leg Dist Tot Dist Heading (true) Name
O UTTT APT - 0 ft / 0 m 41.25059˚ 69.25911˚ - 0 nm - -
UASK FIX - 0 ft / 0 m 50.03611˚ 82.49417˚ 764 nm 764 nm 42° / 51° -
O UASK APT - 0 ft / 0 m 50.03715˚ 82.49482˚ 0 nm 764 nm 22° / 22° -

Altitude Profile

Advertisement - Login to hide

Weather


0- 5 10 15 20 25 30 35+ Temperature / ° C

Clouds and Precipitation
Forecast for 2017-12-17 06:00 UTC. Updated 2 hours ago

Ground ~20,000 ft ~40,000 ft Winds

UTTT

Details ICAO UTTT (TAS)
Name Yuzhny
Region Tajikistan, Turkmenistan and Uzbekistan
Timezone Asia/Tashkent (UTC+5.0)
Stats Elevation 1,417 ft / 432 m (AMSL)
Location 41.255517° 69.281646°
Runways 2
Magnetic Variation 5.402° E

METAR

UTTT 170430Z 23004KT 190V270 3000 BR NSC M01/M01 Q1030 R08L/19//60 NOSIG

Decode

TAF

TAF AMD UTTT 170345Z 1704/1724 VRB02KT 3000 BR SCT007 SCT040CB BKN100 TEMPO 1712/1722 2000 BR

Decode

Departure Runways

ID Width Length Bearing (true) Bearing (mag) Surface Threshold Offset Overrun Length
08L 197 ft / 60 m 13,135 ft / 4,004 m 76.98° 71.58° Concrete 820 ft / 250 m 0 ft / 0 m
08R 148 ft / 45 m 12,824 ft / 3,909 m 76.99° 71.59° Asphalt 650 ft / 198 m 0 ft / 0 m
26L 148 ft / 45 m 12,824 ft / 3,909 m 257.02° 251.62° Asphalt 680 ft / 207 m 0 ft / 0 m
26R 197 ft / 60 m 13,135 ft / 4,004 m 257.02° 251.62° Concrete 820 ft / 250 m 0 ft / 0 m

UASK

Details ICAO UASK (UKK)
Name UST KAMENOGORSK
Region Kazakhstan and Kyrgyzstan
Timezone Asia/Almaty (UTC+6.0)
Stats Elevation 939 ft / 286 m (AMSL)
Location 50.034154° 82.499412°
Runways 2
Magnetic Variation 6.478° E

METAR

UASK 170430Z 00000MPS 0750 R12/0750 FZFG BKN002 M25/M28 Q1044 R12/420150 NOSIG RMK QBB060 QFE757/1009

Decode

TAF

Not found

Destination Runways

ID Width Length Bearing (true) Bearing (mag) Surface Threshold Offset Overrun Length
12 138 ft / 42 m 8,223 ft / 2,507 m 130.67° 124.19° Asphalt 0 ft / 0 m 160 ft / 49 m
12L 200 ft / 61 m 6,078 ft / 1,853 m 130.78° 124.30° Grass 0 ft / 0 m 0 ft / 0 m
30 138 ft / 42 m 8,223 ft / 2,507 m 310.69° 304.21° Asphalt 0 ft / 0 m 160 ft / 49 m
30R 200 ft / 61 m 6,078 ft / 1,853 m 310.80° 304.32° Grass 0 ft / 0 m 0 ft / 0 m

Approach Navaids

Runway Type Ident Frequency Range Bearing (true) Bearing (mag) Slope Elevation
12 Localiser IUS 111.70 MHz 18 nm / 33 km 131.34° 124.86° - 939 ft / 286 m (AMSL)
12 Glidescope IUS 111.70 MHz 10 nm / 19 km 130.68° 124.20° 2.40° 939 ft / 286 m (AMSL)
30 Localiser ISI 109.70 MHz 18 nm / 33 km 309.95° 303.47° - 939 ft / 286 m (AMSL)
30 Glidescope ISI 109.70 MHz 10 nm / 19 km 310.68° 304.20° 3.00° 939 ft / 286 m (AMSL)